Terminal Aerodrome Forecast
Issued by NWS

Current Version | Previous Version | Graphics & Text | Print | Product List | Glossary On
Versions: 1 2 3 4 5 6 7 8 9 10 11 12 13 14 15 16 17 18 19 20 21
000
FTUS41 KPBZ 271700 RRA
TAFMGW
TAF
KMGW 271751Z 2718/2818 28005KT P6SM SCT025
     FM280100 VRB02KT P6SM SCT150
     FM281400 13004KT P6SM BKN100=

USA.gov is the U.S. government's official web portal to all federal, state and local government web resources and services.